sensor_id;sensor_type;location;lat;lon;timestamp;temperature;humidity
29243;DHT22;21110;48.036;15.780;2023-04-15T00:00:41;23.10;33.70
29243;DHT22;21110;48.036;15.780;2023-04-15T00:03:06;23.10;33.50
29243;DHT22;21110;48.036;15.780;2023-04-15T00:05:33;23.10;33.50
29243;DHT22;21110;48.036;15.780;2023-04-15T00:07:59;23.10;33.70
29243;DHT22;21110;48.036;15.780;2023-04-15T00:10:26;23.00;33.50
29243;DHT22;21110;48.036;15.780;2023-04-15T00:12:52;23.00;33.40
29243;DHT22;21110;48.036;15.780;2023-04-15T00:15:18;23.10;33.70
29243;DHT22;21110;48.036;15.780;2023-04-15T00:17:44;23.00;33.60
29243;DHT22;21110;48.036;15.780;2023-04-15T00:20:10;23.00;33.50
29243;DHT22;21110;48.036;15.780;2023-04-15T00:22:36;23.00;33.60
29243;DHT22;21110;48.036;15.780;2023-04-15T00:25:01;22.90;33.40
29243;DHT22;21110;48.036;15.780;2023-04-15T00:27:27;23.00;33.50
29243;DHT22;21110;48.036;15.780;2023-04-15T00:29:54;22.90;33.40
29243;DHT22;21110;48.036;15.780;2023-04-15T00:32:20;22.90;33.20
29243;DHT22;21110;48.036;15.780;2023-04-15T00:34:47;22.90;33.40
29243;DHT22;21110;48.036;15.780;2023-04-15T00:37:14;22.90;33.40
29243;DHT22;21110;48.036;15.780;2023-04-15T00:39:39;22.90;33.70
29243;DHT22;21110;48.036;15.780;2023-04-15T00:42:05;22.90;33.40
29243;DHT22;21110;48.036;15.780;2023-04-15T00:44:31;22.80;33.40
29243;DHT22;21110;48.036;15.780;2023-04-15T00:46:59;22.80;33.40
29243;DHT22;21110;48.036;15.780;2023-04-15T00:49:24;22.80;33.40
29243;DHT22;21110;48.036;15.780;2023-04-15T00:51:51;22.80;33.30
29243;DHT22;21110;48.036;15.780;2023-04-15T00:54:17;22.80;33.30
29243;DHT22;21110;48.036;15.780;2023-04-15T00:56:42;22.70;33.10
29243;DHT22;21110;48.036;15.780;2023-04-15T00:59:08;22.60;33.50
29243;DHT22;21110;48.036;15.780;2023-04-15T01:01:35;22.50;33.30
29243;DHT22;21110;48.036;15.780;2023-04-15T01:04:01;22.50;33.40
29243;DHT22;21110;48.036;15.780;2023-04-15T01:06:26;22.60;33.40
29243;DHT22;21110;48.036;15.780;2023-04-15T01:08:56;22.60;33.60
29243;DHT22;21110;48.036;15.780;2023-04-15T01:11:22;22.60;33.40
29243;DHT22;21110;48.036;15.780;2023-04-15T01:13:50;22.60;33.20
29243;DHT22;21110;48.036;15.780;2023-04-15T01:16:16;22.50;33.50
29243;DHT22;21110;48.036;15.780;2023-04-15T01:18:42;22.50;33.50
29243;DHT22;21110;48.036;15.780;2023-04-15T01:21:08;22.40;33.50
29243;DHT22;21110;48.036;15.780;2023-04-15T01:23:36;22.40;33.60
29243;DHT22;21110;48.036;15.780;2023-04-15T01:26:03;22.40;33.50
29243;DHT22;21110;48.036;15.780;2023-04-15T01:28:32;22.40;33.50
29243;DHT22;21110;48.036;15.780;2023-04-15T01:31:09;22.30;33.30
29243;DHT22;21110;48.036;15.780;2023-04-15T01:33:35;22.30;33.30
29243;DHT22;21110;48.036;15.780;2023-04-15T01:36:01;22.30;33.40
29243;DHT22;21110;48.036;15.780;2023-04-15T01:38:27;22.30;33.30
29243;DHT22;21110;48.036;15.780;2023-04-15T01:40:53;22.30;33.30
29243;DHT22;21110;48.036;15.780;2023-04-15T01:43:19;22.20;33.40
29243;DHT22;21110;48.036;15.780;2023-04-15T01:45:45;22.20;33.40
29243;DHT22;21110;48.036;15.780;2023-04-15T01:48:11;22.20;33.50
29243;DHT22;21110;48.036;15.780;2023-04-15T01:50:37;22.20;33.40
29243;DHT22;21110;48.036;15.780;2023-04-15T01:53:03;22.20;33.30
29243;DHT22;21110;48.036;15.780;2023-04-15T01:55:28;22.20;33.30
29243;DHT22;21110;48.036;15.780;2023-04-15T01:57:55;22.10;33.40
29243;DHT22;21110;48.036;15.780;2023-04-15T02:00:21;22.10;33.40
29243;DHT22;21110;48.036;15.780;2023-04-15T02:02:47;22.10;34.00
29243;DHT22;21110;48.036;15.780;2023-04-15T02:05:13;22.00;33.30
29243;DHT22;21110;48.036;15.780;2023-04-15T02:07:44;22.10;33.50
29243;DHT22;21110;48.036;15.780;2023-04-15T02:10:10;22.00;33.70
29243;DHT22;21110;48.036;15.780;2023-04-15T02:12:37;22.00;33.60
29243;DHT22;21110;48.036;15.780;2023-04-15T02:15:04;22.00;33.60
29243;DHT22;21110;48.036;15.780;2023-04-15T02:17:29;22.00;33.60
29243;DHT22;21110;48.036;15.780;2023-04-15T02:19:59;22.00;33.30
29243;DHT22;21110;48.036;15.780;2023-04-15T02:22:25;22.00;33.50
29243;DHT22;21110;48.036;15.780;2023-04-15T02:24:50;22.00;33.60
29243;DHT22;21110;48.036;15.780;2023-04-15T02:27:17;21.90;33.50
29243;DHT22;21110;48.036;15.780;2023-04-15T02:29:45;21.90;33.50
29243;DHT22;21110;48.036;15.780;2023-04-15T02:32:11;21.90;33.50
29243;DHT22;21110;48.036;15.780;2023-04-15T02:34:40;21.90;33.60
29243;DHT22;21110;48.036;15.780;2023-04-15T02:37:08;21.90;33.60
29243;DHT22;21110;48.036;15.780;2023-04-15T02:39:34;21.80;33.80
29243;DHT22;21110;48.036;15.780;2023-04-15T02:41:59;21.80;33.80
29243;DHT22;21110;48.036;15.780;2023-04-15T02:44:26;21.80;34.00
29243;DHT22;21110;48.036;15.780;2023-04-15T02:46:52;21.80;33.90
29243;DHT22;21110;48.036;15.780;2023-04-15T02:49:19;21.80;33.90
29243;DHT22;21110;48.036;15.780;2023-04-15T02:51:45;21.80;33.90
29243;DHT22;21110;48.036;15.780;2023-04-15T02:54:18;21.80;33.90
29243;DHT22;21110;48.036;15.780;2023-04-15T02:56:45;21.80;34.70
29243;DHT22;21110;48.036;15.780;2023-04-15T02:59:11;21.80;34.00
29243;DHT22;21110;48.036;15.780;2023-04-15T03:01:37;21.70;34.00
29243;DHT22;21110;48.036;15.780;2023-04-15T03:04:03;21.70;34.00
29243;DHT22;21110;48.036;15.780;2023-04-15T03:06:28;21.70;34.10
29243;DHT22;21110;48.036;15.780;2023-04-15T03:08:54;21.60;34.10
29243;DHT22;21110;48.036;15.780;2023-04-15T03:11:21;21.60;34.10
29243;DHT22;21110;48.036;15.780;2023-04-15T03:13:47;21.60;34.20
29243;DHT22;21110;48.036;15.780;2023-04-15T03:16:12;21.60;34.00
29243;DHT22;21110;48.036;15.780;2023-04-15T03:18:38;21.60;34.10
29243;DHT22;21110;48.036;15.780;2023-04-15T03:21:04;21.60;34.10
29243;DHT22;21110;48.036;15.780;2023-04-15T03:23:30;21.60;34.40
29243;DHT22;21110;48.036;15.780;2023-04-15T03:25:56;21.50;34.20
29243;DHT22;21110;48.036;15.780;2023-04-15T03:28:23;21.50;34.00
29243;DHT22;21110;48.036;15.780;2023-04-15T03:30:49;21.50;34.10
29243;DHT22;21110;48.036;15.780;2023-04-15T03:33:14;21.40;34.20
29243;DHT22;21110;48.036;15.780;2023-04-15T03:35:40;21.40;34.10
29243;DHT22;21110;48.036;15.780;2023-04-15T03:38:06;21.40;34.20
29243;DHT22;21110;48.036;15.780;2023-04-15T03:40:31;21.40;34.20
29243;DHT22;21110;48.036;15.780;2023-04-15T03:42:57;21.30;34.10
29243;DHT22;21110;48.036;15.780;2023-04-15T03:45:23;21.40;34.80
29243;DHT22;21110;48.036;15.780;2023-04-15T03:47:48;21.30;34.10
29243;DHT22;21110;48.036;15.780;2023-04-15T03:50:14;21.40;34.20
29243;DHT22;21110;48.036;15.780;2023-04-15T03:52:40;21.30;34.30
29243;DHT22;21110;48.036;15.780;2023-04-15T03:55:06;21.30;34.40
29243;DHT22;21110;48.036;15.780;2023-04-15T03:57:33;21.20;34.20
29243;DHT22;21110;48.036;15.780;2023-04-15T04:00:03;21.30;34.40
29243;DHT22;21110;48.036;15.780;2023-04-15T04:02:29;21.20;34.50
29243;DHT22;21110;48.036;15.780;2023-04-15T04:04:55;21.20;34.60
29243;DHT22;21110;48.036;15.780;2023-04-15T04:07:23;21.20;34.30
29243;DHT22;21110;48.036;15.780;2023-04-15T04:09:49;21.20;34.50
29243;DHT22;21110;48.036;15.780;2023-04-15T04:12:14;21.10;34.30
29243;DHT22;21110;48.036;15.780;2023-04-15T04:14:40;21.10;34.50
29243;DHT22;21110;48.036;15.780;2023-04-15T04:17:06;21.00;34.50
29243;DHT22;21110;48.036;15.780;2023-04-15T04:19:31;21.10;34.50
29243;DHT22;21110;48.036;15.780;2023-04-15T04:21:57;21.10;34.50
29243;DHT22;21110;48.036;15.780;2023-04-15T04:24:23;21.00;34.50
29243;DHT22;21110;48.036;15.780;2023-04-15T04:26:48;21.00;34.60
29243;DHT22;21110;48.036;15.780;2023-04-15T04:29:14;21.00;34.50
29243;DHT22;21110;48.036;15.780;2023-04-15T04:31:39;21.00;34.50
29243;DHT22;21110;48.036;15.780;2023-04-15T04:34:05;21.00;34.60
29243;DHT22;21110;48.036;15.780;2023-04-15T04:36:31;20.90;34.50
29243;DHT22;21110;48.036;15.780;2023-04-15T04:38:57;20.90;34.50
29243;DHT22;21110;48.036;15.780;2023-04-15T04:41:22;21.00;35.20
29243;DHT22;21110;48.036;15.780;2023-04-15T04:43:48;21.00;34.40
29243;DHT22;21110;48.036;15.780;2023-04-15T04:46:13;21.00;34.60
29243;DHT22;21110;48.036;15.780;2023-04-15T04:48:39;21.00;34.70
29243;DHT22;21110;48.036;15.780;2023-04-15T04:51:05;20.90;34.20
29243;DHT22;21110;48.036;15.780;2023-04-15T04:53:32;20.90;34.50
29243;DHT22;21110;48.036;15.780;2023-04-15T04:55:58;20.90;34.50
29243;DHT22;21110;48.036;15.780;2023-04-15T04:58:23;20.80;34.50
29243;DHT22;21110;48.036;15.780;2023-04-15T05:00:49;20.90;34.80
29243;DHT22;21110;48.036;15.780;2023-04-15T05:03:15;20.80;34.80
29243;DHT22;21110;48.036;15.780;2023-04-15T05:05:41;20.80;35.10
29243;DHT22;21110;48.036;15.780;2023-04-15T05:08:06;20.70;34.60
29243;DHT22;21110;48.036;15.780;2023-04-15T05:10:32;20.70;34.70
29243;DHT22;21110;48.036;15.780;2023-04-15T05:12:57;20.70;34.60
29243;DHT22;21110;48.036;15.780;2023-04-15T05:15:23;20.70;34.60
29243;DHT22;21110;48.036;15.780;2023-04-15T05:17:49;20.60;34.60
29243;DHT22;21110;48.036;15.780;2023-04-15T05:20:15;20.60;34.60
29243;DHT22;21110;48.036;15.780;2023-04-15T05:22:40;20.60;34.70
29243;DHT22;21110;48.036;15.780;2023-04-15T05:25:06;20.60;34.80
29243;DHT22;21110;48.036;15.780;2023-04-15T05:27:33;20.60;34.70
29243;DHT22;21110;48.036;15.780;2023-04-15T05:29:58;20.60;34.80
29243;DHT22;21110;48.036;15.780;2023-04-15T05:32:24;20.60;35.00
29243;DHT22;21110;48.036;15.780;2023-04-15T05:34:49;20.60;34.70
29243;DHT22;21110;48.036;15.780;2023-04-15T05:37:15;20.60;34.90
29243;DHT22;21110;48.036;15.780;2023-04-15T05:39:41;20.50;34.90
29243;DHT22;21110;48.036;15.780;2023-04-15T05:42:07;20.60;34.90
29243;DHT22;21110;48.036;15.780;2023-04-15T05:44:33;20.50;34.90
29243;DHT22;21110;48.036;15.780;2023-04-15T05:46:58;20.50;35.20
29243;DHT22;21110;48.036;15.780;2023-04-15T05:49:24;20.60;35.30
29243;DHT22;21110;48.036;15.780;2023-04-15T05:51:50;20.70;35.10
29243;DHT22;21110;48.036;15.780;2023-04-15T05:54:15;20.60;34.90
29243;DHT22;21110;48.036;15.780;2023-04-15T05:56:41;20.50;34.90
29243;DHT22;21110;48.036;15.780;2023-04-15T05:59:07;20.50;35.10
29243;DHT22;21110;48.036;15.780;2023-04-15T06:01:33;20.40;35.30
29243;DHT22;21110;48.036;15.780;2023-04-15T06:03:59;20.40;35.20
29243;DHT22;21110;48.036;15.780;2023-04-15T06:06:26;20.40;35.20
29243;DHT22;21110;48.036;15.780;2023-04-15T06:08:52;20.30;35.40
29243;DHT22;21110;48.036;15.780;2023-04-15T06:11:19;20.40;35.50
29243;DHT22;21110;48.036;15.780;2023-04-15T06:13:45;20.30;35.40
29243;DHT22;21110;48.036;15.780;2023-04-15T06:16:11;20.30;35.40
29243;DHT22;21110;48.036;15.780;2023-04-15T06:18:37;20.30;35.30
29243;DHT22;21110;48.036;15.780;2023-04-15T06:21:02;20.30;35.40
29243;DHT22;21110;48.036;15.780;2023-04-15T06:23:28;20.30;35.30
29243;DHT22;21110;48.036;15.780;2023-04-15T06:25:54;20.20;35.30
29243;DHT22;21110;48.036;15.780;2023-04-15T06:28:20;20.20;35.10
29243;DHT22;21110;48.036;15.780;2023-04-15T06:30:45;20.20;35.30
29243;DHT22;21110;48.036;15.780;2023-04-15T06:33:11;20.20;35.20
29243;DHT22;21110;48.036;15.780;2023-04-15T06:35:37;20.10;35.20
29243;DHT22;21110;48.036;15.780;2023-04-15T06:38:03;20.10;35.30
29243;DHT22;21110;48.036;15.780;2023-04-15T06:40:29;20.10;35.60
29243;DHT22;21110;48.036;15.780;2023-04-15T06:42:55;20.10;35.20
29243;DHT22;21110;48.036;15.780;2023-04-15T06:45:21;20.10;35.10
29243;DHT22;21110;48.036;15.780;2023-04-15T06:47:47;20.10;35.00
29243;DHT22;21110;48.036;15.780;2023-04-15T06:50:12;20.10;35.30
29243;DHT22;21110;48.036;15.780;2023-04-15T06:52:38;20.10;35.20
29243;DHT22;21110;48.036;15.780;2023-04-15T06:55:05;20.30;36.40
29243;DHT22;21110;48.036;15.780;2023-04-15T06:57:31;20.50;36.00
29243;DHT22;21110;48.036;15.780;2023-04-15T06:59:57;20.40;35.70
29243;DHT22;21110;48.036;15.780;2023-04-15T07:02:22;20.30;36.00
29243;DHT22;21110;48.036;15.780;2023-04-15T07:04:48;20.20;35.50
29243;DHT22;21110;48.036;15.780;2023-04-15T07:07:13;20.20;35.80
29243;DHT22;21110;48.036;15.780;2023-04-15T07:09:40;20.30;36.30
29243;DHT22;21110;48.036;15.780;2023-04-15T07:12:06;20.60;36.70
29243;DHT22;21110;48.036;15.780;2023-04-15T07:14:31;20.70;36.80
29243;DHT22;21110;48.036;15.780;2023-04-15T07:16:57;20.80;36.70
29243;DHT22;21110;48.036;15.780;2023-04-15T07:19:22;20.70;36.80
29243;DHT22;21110;48.036;15.780;2023-04-15T07:21:48;20.90;36.90
29243;DHT22;21110;48.036;15.780;2023-04-15T07:24:14;21.00;36.90
29243;DHT22;21110;48.036;15.780;2023-04-15T07:26:43;21.10;37.50
29243;DHT22;21110;48.036;15.780;2023-04-15T07:29:09;21.10;38.00
29243;DHT22;21110;48.036;15.780;2023-04-15T07:31:35;21.20;37.70
29243;DHT22;21110;48.036;15.780;2023-04-15T07:34:02;21.20;37.50
29243;DHT22;21110;48.036;15.780;2023-04-15T07:36:28;21.20;37.50
29243;DHT22;21110;48.036;15.780;2023-04-15T07:38:53;21.10;37.30
29243;DHT22;21110;48.036;15.780;2023-04-15T07:41:20;21.10;37.30
29243;DHT22;21110;48.036;15.780;2023-04-15T07:43:46;21.10;37.40
29243;DHT22;21110;48.036;15.780;2023-04-15T07:46:13;21.10;37.40
29243;DHT22;21110;48.036;15.780;2023-04-15T07:48:38;21.10;37.50
29243;DHT22;21110;48.036;15.780;2023-04-15T07:51:04;21.10;37.40
29243;DHT22;21110;48.036;15.780;2023-04-15T07:53:30;21.10;37.40
29243;DHT22;21110;48.036;15.780;2023-04-15T07:55:57;21.00;37.40
29243;DHT22;21110;48.036;15.780;2023-04-15T07:58:23;21.10;37.20
29243;DHT22;21110;48.036;15.780;2023-04-15T08:00:48;21.20;38.40
29243;DHT22;21110;48.036;15.780;2023-04-15T08:03:14;21.00;39.00
29243;DHT22;21110;48.036;15.780;2023-04-15T08:05:40;21.10;38.90
29243;DHT22;21110;48.036;15.780;2023-04-15T08:08:06;21.20;39.00
29243;DHT22;21110;48.036;15.780;2023-04-15T08:10:32;21.20;38.90
29243;DHT22;21110;48.036;15.780;2023-04-15T08:12:58;21.10;39.40
29243;DHT22;21110;48.036;15.780;2023-04-15T08:15:24;21.00;40.00
29243;DHT22;21110;48.036;15.780;2023-04-15T08:17:50;20.90;40.40
29243;DHT22;21110;48.036;15.780;2023-04-15T08:20:16;20.90;40.60
29243;DHT22;21110;48.036;15.780;2023-04-15T08:22:42;20.90;40.70
29243;DHT22;21110;48.036;15.780;2023-04-15T08:25:08;20.90;41.10
29243;DHT22;21110;48.036;15.780;2023-04-15T08:27:34;20.90;41.10
29243;DHT22;21110;48.036;15.780;2023-04-15T08:30:00;20.90;41.20
29243;DHT22;21110;48.036;15.780;2023-04-15T08:32:26;20.80;41.20
29243;DHT22;21110;48.036;15.780;2023-04-15T08:34:52;20.80;41.40
29243;DHT22;21110;48.036;15.780;2023-04-15T08:37:17;20.90;41.50
29243;DHT22;21110;48.036;15.780;2023-04-15T08:39:43;20.80;41.50
29243;DHT22;21110;48.036;15.780;2023-04-15T08:42:16;20.80;41.30
29243;DHT22;21110;48.036;15.780;2023-04-15T08:44:42;20.90;41.40
29243;DHT22;21110;48.036;15.780;2023-04-15T08:47:12;20.90;41.50
29243;DHT22;21110;48.036;15.780;2023-04-15T08:49:39;21.00;41.50
29243;DHT22;21110;48.036;15.780;2023-04-15T08:52:06;20.90;41.30
29243;DHT22;21110;48.036;15.780;2023-04-15T08:54:33;21.00;40.90
29243;DHT22;21110;48.036;15.780;2023-04-15T08:56:59;21.00;40.60
29243;DHT22;21110;48.036;15.780;2023-04-15T08:59:27;21.00;40.90
29243;DHT22;21110;48.036;15.780;2023-04-15T09:01:54;21.00;40.90
29243;DHT22;21110;48.036;15.780;2023-04-15T09:04:21;21.10;41.10
29243;DHT22;21110;48.036;15.780;2023-04-15T09:06:47;21.10;41.00
29243;DHT22;21110;48.036;15.780;2023-04-15T09:09:12;21.20;41.10
29243;DHT22;21110;48.036;15.780;2023-04-15T09:11:38;21.10;40.90
29243;DHT22;21110;48.036;15.780;2023-04-15T09:14:04;21.10;40.90
29243;DHT22;21110;48.036;15.780;2023-04-15T09:16:30;21.10;40.90
29243;DHT22;21110;48.036;15.780;2023-04-15T09:18:56;21.10;40.90
29243;DHT22;21110;48.036;15.780;2023-04-15T09:21:22;21.10;40.90
29243;DHT22;21110;48.036;15.780;2023-04-15T09:23:57;21.10;40.90
29243;DHT22;21110;48.036;15.780;2023-04-15T09:26:38;21.20;41.00
29243;DHT22;21110;48.036;15.780;2023-04-15T09:29:09;21.10;40.90
29243;DHT22;21110;48.036;15.780;2023-04-15T09:31:36;21.10;40.90
29243;DHT22;21110;48.036;15.780;2023-04-15T09:34:02;21.20;41.00
29243;DHT22;21110;48.036;15.780;2023-04-15T09:36:27;21.20;41.00
29243;DHT22;21110;48.036;15.780;2023-04-15T09:38:59;21.20;41.00
29243;DHT22;21110;48.036;15.780;2023-04-15T09:41:25;21.20;41.00
29243;DHT22;21110;48.036;15.780;2023-04-15T09:43:51;21.00;41.00
29243;DHT22;21110;48.036;15.780;2023-04-15T09:46:17;21.00;41.20
29243;DHT22;21110;48.036;15.780;2023-04-15T09:48:43;20.90;41.20
29243;DHT22;21110;48.036;15.780;2023-04-15T09:51:09;20.90;41.30
29243;DHT22;21110;48.036;15.780;2023-04-15T09:53:35;20.90;41.90
29243;DHT22;21110;48.036;15.780;2023-04-15T09:56:01;20.90;41.40
29243;DHT22;21110;48.036;15.780;2023-04-15T09:58:29;20.90;41.40
29243;DHT22;21110;48.036;15.780;2023-04-15T10:00:56;20.90;41.50
29243;DHT22;21110;48.036;15.780;2023-04-15T10:03:33;20.80;41.50
29243;DHT22;21110;48.036;15.780;2023-04-15T10:12:44;21.10;41.20
29243;DHT22;21110;48.036;15.780;2023-04-15T10:15:15;21.00;41.00
29243;DHT22;21110;48.036;15.780;2023-04-15T10:17:43;21.10;41.50
29243;DHT22;21110;48.036;15.780;2023-04-15T10:20:10;21.10;41.00
29243;DHT22;21110;48.036;15.780;2023-04-15T11:20:17;20.90;41.40
29243;DHT22;21110;48.036;15.780;2023-04-15T11:22:50;20.90;41.40
29243;DHT22;21110;48.036;15.780;2023-04-15T11:42:24;20.70;41.00
29243;DHT22;21110;48.036;15.780;2023-04-15T11:45:08;20.70;41.50
29243;DHT22;21110;48.036;15.780;2023-04-15T11:47:35;20.70;41.50
29243;DHT22;21110;48.036;15.780;2023-04-15T11:50:21;20.70;41.50
29243;DHT22;21110;48.036;15.780;2023-04-15T11:52:54;20.80;41.20
29243;DHT22;21110;48.036;15.780;2023-04-15T11:55:20;20.80;41.30
29243;DHT22;21110;48.036;15.780;2023-04-15T11:57:45;20.80;41.50
29243;DHT22;21110;48.036;15.780;2023-04-15T12:00:12;20.80;41.20
29243;DHT22;21110;48.036;15.780;2023-04-15T12:02:37;20.80;41.30
29243;DHT22;21110;48.036;15.780;2023-04-15T12:05:04;20.80;41.30
29243;DHT22;21110;48.036;15.780;2023-04-15T12:07:30;20.90;41.30
29243;DHT22;21110;48.036;15.780;2023-04-15T12:09:57;20.70;40.50
29243;DHT22;21110;48.036;15.780;2023-04-15T12:12:26;20.50;38.50
29243;DHT22;21110;48.036;15.780;2023-04-15T12:14:53;19.90;37.90
29243;DHT22;21110;48.036;15.780;2023-04-15T12:17:18;19.70;39.50
29243;DHT22;21110;48.036;15.780;2023-04-15T12:19:44;19.90;39.70
29243;DHT22;21110;48.036;15.780;2023-04-15T12:24:36;20.20;39.60
29243;DHT22;21110;48.036;15.780;2023-04-15T12:27:07;20.30;39.80
29243;DHT22;21110;48.036;15.780;2023-04-15T12:29:34;20.30;39.80
29243;DHT22;21110;48.036;15.780;2023-04-15T12:32:16;20.30;39.90
29243;DHT22;21110;48.036;15.780;2023-04-15T12:34:52;20.30;40.00
29243;DHT22;21110;48.036;15.780;2023-04-15T12:37:19;20.30;40.10
29243;DHT22;21110;48.036;15.780;2023-04-15T12:39:46;20.30;40.10
29243;DHT22;21110;48.036;15.780;2023-04-15T12:42:13;20.30;40.20
29243;DHT22;21110;48.036;15.780;2023-04-15T12:44:40;20.30;40.20
29243;DHT22;21110;48.036;15.780;2023-04-15T12:47:07;20.30;40.20
29243;DHT22;21110;48.036;15.780;2023-04-15T12:49:33;20.30;40.40
29243;DHT22;21110;48.036;15.780;2023-04-15T12:51:59;20.30;40.30
29243;DHT22;21110;48.036;15.780;2023-04-15T12:54:26;20.30;40.30
29243;DHT22;21110;48.036;15.780;2023-04-15T12:56:52;20.30;40.40
29243;DHT22;21110;48.036;15.780;2023-04-15T12:59:18;20.30;40.40
29243;DHT22;21110;48.036;15.780;2023-04-15T13:01:45;20.30;40.50
29243;DHT22;21110;48.036;15.780;2023-04-15T13:04:10;20.20;40.40
29243;DHT22;21110;48.036;15.780;2023-04-15T13:06:36;20.30;40.50
29243;DHT22;21110;48.036;15.780;2023-04-15T13:09:03;20.30;40.50
29243;DHT22;21110;48.036;15.780;2023-04-15T13:11:29;20.20;40.40
29243;DHT22;21110;48.036;15.780;2023-04-15T13:14:05;20.20;40.40
29243;DHT22;21110;48.036;15.780;2023-04-15T13:16:32;20.20;40.50
29243;DHT22;21110;48.036;15.780;2023-04-15T13:18:58;20.20;40.50
29243;DHT22;21110;48.036;15.780;2023-04-15T13:21:24;20.20;40.50
29243;DHT22;21110;48.036;15.780;2023-04-15T13:23:51;20.20;40.50
29243;DHT22;21110;48.036;15.780;2023-04-15T13:26:17;20.20;40.60
29243;DHT22;21110;48.036;15.780;2023-04-15T13:28:42;20.20;40.60
29243;DHT22;21110;48.036;15.780;2023-04-15T13:31:08;20.20;40.60
29243;DHT22;21110;48.036;15.780;2023-04-15T13:33:34;20.20;40.60
29243;DHT22;21110;48.036;15.780;2023-04-15T13:35:59;20.20;40.60
29243;DHT22;21110;48.036;15.780;2023-04-15T13:38:25;20.10;40.60
29243;DHT22;21110;48.036;15.780;2023-04-15T13:40:51;20.20;40.70
29243;DHT22;21110;48.036;15.780;2023-04-15T13:43:17;20.20;41.30
29243;DHT22;21110;48.036;15.780;2023-04-15T13:45:43;20.10;40.60
29243;DHT22;21110;48.036;15.780;2023-04-15T13:48:08;20.10;41.30
29243;DHT22;21110;48.036;15.780;2023-04-15T13:50:35;20.10;40.70
29243;DHT22;21110;48.036;15.780;2023-04-15T13:53:00;20.10;40.70
29243;DHT22;21110;48.036;15.780;2023-04-15T13:55:26;20.10;40.70
29243;DHT22;21110;48.036;15.780;2023-04-15T13:57:52;20.10;40.80
29243;DHT22;21110;48.036;15.780;2023-04-15T14:00:18;20.10;40.80
29243;DHT22;21110;48.036;15.780;2023-04-15T14:02:43;20.10;40.80
29243;DHT22;21110;48.036;15.780;2023-04-15T14:05:09;20.10;40.80
29243;DHT22;21110;48.036;15.780;2023-04-15T14:07:35;20.10;40.80
29243;DHT22;21110;48.036;15.780;2023-04-15T14:10:02;20.10;40.80
29243;DHT22;21110;48.036;15.780;2023-04-15T14:12:27;20.10;40.80
29243;DHT22;21110;48.036;15.780;2023-04-15T14:14:53;20.10;40.80
29243;DHT22;21110;48.036;15.780;2023-04-15T14:17:19;20.10;40.80
29243;DHT22;21110;48.036;15.780;2023-04-15T14:19:44;20.10;40.80
29243;DHT22;21110;48.036;15.780;2023-04-15T14:22:10;20.10;40.80
29243;DHT22;21110;48.036;15.780;2023-04-15T14:24:36;20.10;40.90
29243;DHT22;21110;48.036;15.780;2023-04-15T14:27:02;20.10;40.90
29243;DHT22;21110;48.036;15.780;2023-04-15T14:29:27;20.00;40.90
29243;DHT22;21110;48.036;15.780;2023-04-15T14:31:53;20.00;40.80
29243;DHT22;21110;48.036;15.780;2023-04-15T14:34:21;20.00;40.90
29243;DHT22;21110;48.036;15.780;2023-04-15T14:36:49;20.00;40.90
29243;DHT22;21110;48.036;15.780;2023-04-15T14:39:15;20.10;41.30
29243;DHT22;21110;48.036;15.780;2023-04-15T14:41:41;20.10;41.60
29243;DHT22;21110;48.036;15.780;2023-04-15T14:44:06;20.10;41.60
29243;DHT22;21110;48.036;15.780;2023-04-15T14:46:34;20.10;41.50
29243;DHT22;21110;48.036;15.780;2023-04-15T14:49:00;20.10;41.80
29243;DHT22;21110;48.036;15.780;2023-04-15T14:51:25;20.10;41.80
29243;DHT22;21110;48.036;15.780;2023-04-15T14:53:51;20.00;41.10
29243;DHT22;21110;48.036;15.780;2023-04-15T14:56:16;20.00;41.20
29243;DHT22;21110;48.036;15.780;2023-04-15T14:58:42;20.00;41.50
29243;DHT22;21110;48.036;15.780;2023-04-15T15:01:08;20.00;41.80
29243;DHT22;21110;48.036;15.780;2023-04-15T15:03:33;20.00;41.90
29243;DHT22;21110;48.036;15.780;2023-04-15T15:05:59;20.00;42.00
29243;DHT22;21110;48.036;15.780;2023-04-15T15:08:25;20.00;41.90
29243;DHT22;21110;48.036;15.780;2023-04-15T15:10:51;20.00;41.80
29243;DHT22;21110;48.036;15.780;2023-04-15T15:13:17;20.00;42.10
29243;DHT22;21110;48.036;15.780;2023-04-15T15:15:43;20.00;41.60
29243;DHT22;21110;48.036;15.780;2023-04-15T15:18:09;20.00;41.50
29243;DHT22;21110;48.036;15.780;2023-04-15T15:20:35;20.00;41.40
29243;DHT22;21110;48.036;15.780;2023-04-15T15:46:19;19.90;42.40
29243;DHT22;21110;48.036;15.780;2023-04-15T15:48:45;19.80;41.70
29243;DHT22;21110;48.036;15.780;2023-04-15T15:51:10;19.90;41.80
29243;DHT22;21110;48.036;15.780;2023-04-15T15:53:37;19.90;41.80
29243;DHT22;21110;48.036;15.780;2023-04-15T15:56:03;19.80;41.70
29243;DHT22;21110;48.036;15.780;2023-04-15T15:58:30;19.90;41.70
29243;DHT22;21110;48.036;15.780;2023-04-15T16:00:55;19.80;41.70
29243;DHT22;21110;48.036;15.780;2023-04-15T16:03:22;19.80;41.60
29243;DHT22;21110;48.036;15.780;2023-04-15T16:05:48;19.90;41.70
29243;DHT22;21110;48.036;15.780;2023-04-15T16:10:42;19.80;41.70
29243;DHT22;21110;48.036;15.780;2023-04-15T16:13:08;19.80;41.70
29243;DHT22;21110;48.036;15.780;2023-04-15T16:15:35;19.80;41.70
29243;DHT22;21110;48.036;15.780;2023-04-15T16:18:01;19.80;41.70
29243;DHT22;21110;48.036;15.780;2023-04-15T16:20:26;19.80;41.70
29243;DHT22;21110;48.036;15.780;2023-04-15T16:22:56;19.80;41.70
29243;DHT22;21110;48.036;15.780;2023-04-15T16:25:22;19.80;41.70
29243;DHT22;21110;48.036;15.780;2023-04-15T16:27:48;19.80;41.70
29243;DHT22;21110;48.036;15.780;2023-04-15T16:30:14;19.80;41.70
29243;DHT22;21110;48.036;15.780;2023-04-15T16:32:40;19.70;41.70
29243;DHT22;21110;48.036;15.780;2023-04-15T16:35:06;19.70;41.70
29243;DHT22;21110;48.036;15.780;2023-04-15T16:37:32;19.70;41.70
29243;DHT22;21110;48.036;15.780;2023-04-15T16:39:59;19.70;41.70
29243;DHT22;21110;48.036;15.780;2023-04-15T16:42:24;19.70;41.70
29243;DHT22;21110;48.036;15.780;2023-04-15T16:44:50;19.70;41.80
29243;DHT22;21110;48.036;15.780;2023-04-15T16:47:16;19.70;41.80
29243;DHT22;21110;48.036;15.780;2023-04-15T16:49:41;19.70;41.80
29243;DHT22;21110;48.036;15.780;2023-04-15T16:52:08;19.70;41.90
29243;DHT22;21110;48.036;15.780;2023-04-15T16:54:34;19.70;41.90
29243;DHT22;21110;48.036;15.780;2023-04-15T16:57:02;19.70;41.90
29243;DHT22;21110;48.036;15.780;2023-04-15T16:59:27;19.70;41.90